createdAt,value
2023-04-17T00:03:02.534Z,23.88
2023-04-17T00:08:07.867Z,25.42
2023-04-17T00:13:11.280Z,23.50
2023-04-17T00:18:14.986Z,26.55
2023-04-17T00:23:19.772Z,25.17
2023-04-17T00:28:23.304Z,27.92
2023-04-17T00:33:26.711Z,27.00
2023-04-17T00:38:31.834Z,27.15
2023-04-17T00:43:35.381Z,26.38
2023-04-17T00:48:41.001Z,25.38
2023-04-17T00:53:46.543Z,28.25
2023-04-17T00:58:50.611Z,27.35
2023-04-17T01:03:55.156Z,28.77
2023-04-17T01:09:00.719Z,28.30
2023-04-17T01:14:04.142Z,29.02
2023-04-17T01:19:08.582Z,32.40
2023-04-17T01:24:13.348Z,34.55
2023-04-17T01:29:16.946Z,26.48
2023-04-17T01:34:20.352Z,28.30
2023-04-17T01:39:25.602Z,29.00
2023-04-17T01:44:29.036Z,31.45
2023-04-17T01:49:32.538Z,30.33
2023-04-17T01:54:37.592Z,28.42
2023-04-17T01:59:41.113Z,28.58
2023-04-17T02:04:44.601Z,32.42
2023-04-17T02:09:49.412Z,28.55
2023-04-17T02:14:52.879Z,30.08
2023-04-17T02:19:56.574Z,31.67
2023-04-17T02:25:01.342Z,34.90
2023-04-17T02:30:05.582Z,31.33
2023-04-17T02:35:10.058Z,27.00
2023-04-17T02:40:15.986Z,31.80
2023-04-17T02:45:19.406Z,29.10
2023-04-17T02:50:22.843Z,27.80
2023-04-17T02:55:27.650Z,27.33
2023-04-17T03:00:31.191Z,27.95
2023-04-17T03:05:34.702Z,26.88
2023-04-17T03:10:39.491Z,31.52
2023-04-17T03:15:43.356Z,32.13
2023-04-17T03:20:46.890Z,31.42
2023-04-17T03:25:52.391Z,31.10
2023-04-17T03:30:58.003Z,34.83
2023-04-17T03:36:01.489Z,33.58
2023-04-17T03:41:07.054Z,32.85
2023-04-17T03:46:10.818Z,33.95
2023-04-17T03:51:14.545Z,35.95
2023-04-17T03:56:19.581Z,36.00
2023-04-17T04:01:23.633Z,35.83
2023-04-17T04:06:29.976Z,33.17
2023-04-17T04:11:34.818Z,34.20
2023-04-17T04:16:38.516Z,39.08
2023-04-17T04:21:43.596Z,40.22
2023-04-17T04:26:49.768Z,36.33
2023-04-17T04:31:53.423Z,43.25
2023-04-17T04:36:56.937Z,35.65
2023-04-17T04:42:06.759Z,39.53
2023-04-17T04:47:10.429Z,34.70
2023-04-17T04:52:13.934Z,34.42
2023-04-17T04:57:18.750Z,38.05
2023-04-17T05:02:22.380Z,37.72
2023-04-17T05:07:26.033Z,37.88
2023-04-17T05:12:30.815Z,36.58
2023-04-17T05:17:34.551Z,31.42
2023-04-17T05:22:38.012Z,38.95
2023-04-17T05:27:42.841Z,40.30
2023-04-17T05:32:46.669Z,36.35
2023-04-17T05:37:50.232Z,38.67
2023-04-17T05:42:55.236Z,36.90
2023-04-17T05:47:58.715Z,36.45
2023-04-17T05:53:02.389Z,37.13
2023-04-17T05:58:16.870Z,33.53
2023-04-17T06:03:27.258Z,32.25
2023-04-17T06:08:30.889Z,28.38
2023-04-17T06:13:35.635Z,28.35
2023-04-17T06:18:38.990Z,27.85
2023-04-17T06:23:42.436Z,29.75
2023-04-17T06:28:47.173Z,26.17
2023-04-17T06:33:51.158Z,26.10
2023-04-17T06:38:54.613Z,28.23
2023-04-17T06:43:59.692Z,27.17
2023-04-17T06:49:03.109Z,28.08
2023-04-17T06:54:06.580Z,26.98
2023-04-17T06:59:11.737Z,23.38
2023-04-17T07:04:17.935Z,26.48
2023-04-17T07:09:21.731Z,22.65
2023-04-17T07:14:26.505Z,23.83
2023-04-17T07:19:30.406Z,24.20
2023-04-17T07:24:35.100Z,26.23
2023-04-17T07:29:39.946Z,24.15
2023-04-17T07:34:43.485Z,26.02
2023-04-17T07:39:50.488Z,21.08
2023-04-17T07:44:55.322Z,21.88
2023-04-17T07:49:58.956Z,19.00
2023-04-17T07:55:02.345Z,20.77
2023-04-17T08:00:10.530Z,17.63
2023-04-17T08:05:14.024Z,21.52
2023-04-17T08:10:17.772Z,21.70
2023-04-17T08:15:23.075Z,23.33
2023-04-17T08:20:27.277Z,20.33
2023-04-17T08:25:30.704Z,22.73
2023-04-17T08:30:35.743Z,22.08
2023-04-17T08:35:39.140Z,22.25
2023-04-17T08:40:46.588Z,21.30
2023-04-17T08:45:55.641Z,20.25
2023-04-17T08:50:59.479Z,21.98
2023-04-17T08:56:08.340Z,18.90
2023-04-17T09:01:15.862Z,20.42
2023-04-17T09:06:19.868Z,18.73
2023-04-17T09:11:23.293Z,21.48
2023-04-17T09:16:29.259Z,26.73
2023-04-17T09:21:32.680Z,23.88
2023-04-17T09:26:37.121Z,30.58
2023-04-17T09:31:43.526Z,24.15
2023-04-17T09:36:47.867Z,29.92
2023-04-17T09:41:52.236Z,28.15
2023-04-17T09:46:57.814Z,29.63
2023-04-17T09:52:02.010Z,29.35
2023-04-17T09:57:08.569Z,32.03
2023-04-17T10:02:14.818Z,27.65
2023-04-17T10:07:18.783Z,28.10
2023-04-17T10:12:22.669Z,29.30
2023-04-17T10:17:31.652Z,32.60
2023-04-17T10:22:41.136Z,35.42
2023-04-17T10:27:46.282Z,27.63
2023-04-17T10:33:25.717Z,29.55
2023-04-17T10:38:36.697Z,27.65
2023-04-17T10:43:45.951Z,29.95
2023-04-17T10:48:52.978Z,25.85
2023-04-17T10:53:57.704Z,27.60
2023-04-17T10:59:03.479Z,25.92
2023-04-17T11:04:09.430Z,23.33
2023-04-17T11:09:13.039Z,24.67
2023-04-17T11:14:17.965Z,20.77
2023-04-17T11:19:24.410Z,23.33
2023-04-17T11:24:29.570Z,22.05
2023-04-17T11:29:33.246Z,22.13
2023-04-17T11:34:38.656Z,22.65
2023-04-17T11:39:43.916Z,19.85
2023-04-17T11:44:47.611Z,20.92
2023-04-17T11:49:53.210Z,15.73
2023-04-17T11:54:59.363Z,15.27
2023-04-17T12:00:14.079Z,16.45
2023-04-17T12:05:19.397Z,18.00
2023-04-17T12:10:22.855Z,14.02
2023-04-17T12:15:27.149Z,16.52
2023-04-17T12:20:32.364Z,16.50
2023-04-17T12:25:35.962Z,15.27
2023-04-17T12:30:40.620Z,17.10
2023-04-17T12:35:45.624Z,15.75
2023-04-17T12:40:49.007Z,16.30
2023-04-17T12:45:54.096Z,17.92
2023-04-17T12:50:59.465Z,15.82
2023-04-17T12:56:03.941Z,16.52
2023-04-17T13:01:07.428Z,15.48
2023-04-17T13:06:12.387Z,21.38
2023-04-17T13:11:16.270Z,12.45
2023-04-17T13:16:19.689Z,11.63
2023-04-17T13:21:24.390Z,13.93
2023-04-17T13:26:27.821Z,11.45
2023-04-17T13:31:31.324Z,13.38
2023-04-17T13:36:36.255Z,13.15
2023-04-17T13:41:39.955Z,11.20
2023-04-17T13:46:44.174Z,11.25
2023-04-17T13:51:49.067Z,11.98
2023-04-17T13:56:54.270Z,10.95
2023-04-17T14:01:57.910Z,10.35
2023-04-17T14:07:02.809Z,9.55
2023-04-17T14:12:06.482Z,9.43
2023-04-17T14:17:09.908Z,10.45
2023-04-17T14:22:14.715Z,8.40
2023-04-17T14:27:18.140Z,8.50
2023-04-17T14:32:21.602Z,8.65
2023-04-17T14:37:26.464Z,9.32
2023-04-17T14:42:29.923Z,10.32
2023-04-17T14:47:34.546Z,11.57
2023-04-17T14:52:39.674Z,11.50
2023-04-17T14:57:43.622Z,11.43
2023-04-17T15:02:47.431Z,9.55
2023-04-17T15:07:52.384Z,13.45
2023-04-17T15:13:00.190Z,11.45
2023-04-17T15:18:03.861Z,11.27
2023-04-17T15:23:08.611Z,11.88
2023-04-17T15:28:12.492Z,10.98
2023-04-17T15:33:16.034Z,9.75
2023-04-17T15:38:20.935Z,8.73
2023-04-17T15:43:24.507Z,7.93
2023-04-17T15:48:27.923Z,6.57
2023-04-17T15:53:34.064Z,7.22
2023-04-17T15:58:37.471Z,8.30
2023-04-17T16:03:42.990Z,9.82
2023-04-17T16:08:48.044Z,11.52
2023-04-17T16:13:51.406Z,14.13
2023-04-17T16:18:54.799Z,14.55
2023-04-17T16:23:59.649Z,13.50
2023-04-17T16:29:03.176Z,17.45
2023-04-17T16:34:06.559Z,18.55
2023-04-17T16:39:11.517Z,16.02
2023-04-17T16:44:15.196Z,15.30
2023-04-17T16:49:18.671Z,13.25
2023-04-17T16:54:24.466Z,14.00
2023-04-17T16:59:28.134Z,15.25
2023-04-17T17:04:31.841Z,12.20
2023-04-17T17:09:37.254Z,16.35
2023-04-17T17:14:40.918Z,15.77
2023-04-17T17:19:47.386Z,14.63
2023-04-17T17:24:52.204Z,12.60
2023-04-17T17:29:57.841Z,13.55
2023-04-17T17:35:02.783Z,11.18
2023-04-17T17:40:09.528Z,11.93
2023-04-17T17:45:13.231Z,10.15
2023-04-17T17:50:16.746Z,13.60
2023-04-17T17:55:22.259Z,11.43
2023-04-17T18:00:25.891Z,11.82
2023-04-17T18:05:29.385Z,17.70
2023-04-17T18:10:34.673Z,13.02
2023-04-17T18:15:38.076Z,25.33
2023-04-17T18:20:41.493Z,17.85
2023-04-17T18:25:46.293Z,16.13
2023-04-17T18:30:49.804Z,19.33
2023-04-17T18:35:53.342Z,19.13
2023-04-17T18:40:59.477Z,16.23
2023-04-17T18:46:04.584Z,18.33
2023-04-17T18:51:12.552Z,17.42
2023-04-17T18:56:18.000Z,19.88
2023-04-17T19:01:21.489Z,16.27
2023-04-17T19:06:25.019Z,17.73
2023-04-17T19:11:30.992Z,21.42
2023-04-17T19:16:34.822Z,19.88
2023-04-17T19:21:38.396Z,19.80
2023-04-17T19:26:43.423Z,17.45
2023-04-17T19:31:46.860Z,15.93
2023-04-17T19:36:50.379Z,17.17
2023-04-17T19:41:55.498Z,20.33
2023-04-17T19:46:59.029Z,21.67
2023-04-17T19:52:02.424Z,21.08
2023-04-17T19:57:07.809Z,20.33
2023-04-17T20:02:12.389Z,21.88
2023-04-17T20:07:16.092Z,25.35
2023-04-17T20:12:21.119Z,24.00
2023-04-17T20:17:25.219Z,20.13
2023-04-17T20:22:28.643Z,22.85
2023-04-17T20:27:33.402Z,22.30
2023-04-17T20:32:36.849Z,18.13
2023-04-17T20:37:44.300Z,20.23
2023-04-17T20:42:49.782Z,23.60
2023-04-17T20:47:56.887Z,21.40
2023-04-17T20:53:00.891Z,20.83
2023-04-17T20:58:06.510Z,20.98
2023-04-17T21:03:10.484Z,21.88
2023-04-17T21:08:13.976Z,23.23
2023-04-17T21:13:19.333Z,21.40
2023-04-17T21:18:22.772Z,24.13
2023-04-17T21:23:26.564Z,24.67
2023-04-17T21:28:31.392Z,27.55
2023-04-17T21:33:36.565Z,28.85
2023-04-17T21:38:40.057Z,27.65
2023-04-17T21:43:44.857Z,26.50
2023-04-17T21:48:48.269Z,25.33
2023-04-17T21:53:51.711Z,30.30
2023-04-17T21:58:57.646Z,23.83
2023-04-17T22:04:01.146Z,32.88
2023-04-17T22:09:05.207Z,23.42
2023-04-17T22:14:10.041Z,26.35
2023-04-17T22:19:13.501Z,26.25
2023-04-17T22:25:11.934Z,24.58
2023-04-17T22:31:10.454Z,24.00
2023-04-17T22:37:08.739Z,26.13
2023-04-17T22:43:07.323Z,19.73
2023-04-17T22:49:05.790Z,21.38
2023-04-17T22:55:04.247Z,23.40
2023-04-17T23:01:02.584Z,25.48
2023-04-17T23:07:00.850Z,21.73
2023-04-17T23:12:07.128Z,22.38
2023-04-17T23:17:10.661Z,23.10
2023-04-17T23:22:14.069Z,23.75
2023-04-17T23:27:18.818Z,23.13
2023-04-17T23:32:22.700Z,24.52
2023-04-17T23:37:26.579Z,25.30
2023-04-17T23:42:31.307Z,27.55
2023-04-17T23:47:34.733Z,26.38
2023-04-17T23:52:38.459Z,27.67
2023-04-17T23:57:43.521Z,28.50
